Midway, TX (75852)

5:12 PM CDT on July 25, 2016 (GMT -0500)
Robinson Ranch (FM1428) | | Change Station

Elev 273 ft 30.97 °N, 95.83 °W | Updated 8 minutes ago

Light Thunderstorms and Rain
Light Thunderstorm Rain Mist
80.2 °F
Feels Like 84 °F
N
2.0
Wind Variable Wind from ESE

Today
High -- | Low -- °F
--% Chance of Precip.
Yesterday
High -- | Low -- °F
Precip. -- in
Pressure 29.90 in
Visibility 3.0 miles
Clouds Few 700 ft
Mostly Cloudy 4600 ft
Overcast 11000 ft
Heat Index 84 °F
Dew Point 72 °F
Humidity 75%
Rainfall 0.02 in
Snow Depth Not available.
6:36 AM 8:22 PM
Waning Gibbous, 62% visible
SPECI KUTS 252201Z AUTO 00000KT 3SM -TSRA BR FEW007 BKN046 OVC110 24/23 A2990 RMK AO2 LTG DSNT ALQDS PRESFR P0001 T02390233
Pressure 29.90 in
Visibility 3.0 miles
Clouds Few 700 ft
Mostly Cloudy 4600 ft
Overcast 11000 ft
Heat Index 84 °F
Dew Point 72 °F
Humidity 75%
Rainfall 0.02 in
Snow Depth Not available.
6:36 AM 8:22 PM
Waning Gibbous, 62% visible
SPECI KUTS 252201Z AUTO 00000KT 3SM -TSRA BR FEW007 BKN046 OVC110 24/23 A2990 RMK AO2 LTG DSNT ALQDS PRESFR P0001 T02390233

10-Day Weather Forecast

Almanac

Astronomy

Jul. 25, 2016 Rise Set
Actual Time
Civil Twilight
Nautical Twilight
Astronomical Twilight
Moon
Length of Visible Light
Length of Day
Tomorrow will be .
, % of the Moon is Illuminated

Today's Extremes

State Highs State Lows

Community

WunderPhotos

Upload Photos

1,927,428 photos uploaded!

WunderBlog® & News

Nearby

Air Quality

  Air Quality AQ Index Pollutant
Not available.

Snow Depth

Station Depth Elevation

Earthquake Activity

City Distance Mag. Time & Date
Minimum magnitude displayed is 2.5.

Coastal Water Temperatures

Place Temperature

Stations

Nearby Weather Stations

Station Location Temp. Windchill Dew Point Humidity Wind Precip. Elev Updated Type
                   

Watches & Warnings

There are currently no watches in effect.